»·PEaware :: N458JB KSNA-KSBA

N458JB :: KSNA-KSBA

FLIGHT INFORMATION

Flight Status: Arrived
Operator: Privately registered:
United States
More flights under this callsign
Pilot: Jordan V. (27588)
Aircraft: SOCATA TBM-900
(TBM9)
More flights by this aircraft type
Origin: KSNA John Wayne-Orange Co
United States
Destination: KSBA Santa Barbara Mun
United States
More flights between these airports :: More routes between these airports
Route: SLI SLI341 ELMOO VNY095 VNY V186 FIM V186 DEANO V27 KWANG
File this flight plan on PilotEdge
Remarks:
Altitude:
(Current/Filed)
8,000ft
Speed:
(Current/Filed)
220kts
Departed: 10-Feb-20 11:42 AM
Arrived: 10-Feb-20 12:23 PM
Distance/Time
Traveled:
108nm/0:41
Distance/Time
To Go:
Arrived

Flight Plot

Page will automatically refresh every two minutes.

Flight plan parsing failed; only flown route is shown


Map Options




Map Legend


Flown Route
Filed Route
Departure Airport
Arrival Airport
Navaid (VOR, NDB)
Fix

Horizontal Profiles

Position Reports

Time Latitude Longitude Heading Altitude Ground
Speed
10-Feb-20 11:09 33.675761 -117.871525 220 59ft 0kts
10-Feb-20 11:10 33.675761 -117.871525 220 59ft 0kts
10-Feb-20 11:11 33.675761 -117.871525 220 59ft 0kts
10-Feb-20 11:12 33.675761 -117.871525 220 59ft 0kts
10-Feb-20 11:13 33.675761 -117.871525 220 59ft 0kts
10-Feb-20 11:14 33.675761 -117.871525 220 59ft 0kts
10-Feb-20 11:15 33.675761 -117.871525 220 59ft 0kts
10-Feb-20 11:16 33.675761 -117.871525 220 59ft 0kts
10-Feb-20 11:17 33.675761 -117.871525 220 59ft 0kts
10-Feb-20 11:18 33.675761 -117.871525 220 59ft 0kts
10-Feb-20 11:19 33.675761 -117.871525 220 59ft 0kts
10-Feb-20 11:20 33.675761 -117.871525 220 59ft 0kts
10-Feb-20 11:21 33.675761 -117.871525 220 59ft 0kts
10-Feb-20 11:22 33.675761 -117.871525 220 59ft 0kts
10-Feb-20 11:23 33.675761 -117.871525 220 59ft 0kts
10-Feb-20 11:24 33.675761 -117.871525 220 59ft 0kts
10-Feb-20 11:25 33.675761 -117.871525 220 59ft 0kts
10-Feb-20 11:26 33.675761 -117.871525 220 59ft 0kts
10-Feb-20 11:27 33.675761 -117.871525 220 59ft 0kts
10-Feb-20 11:28 33.675761 -117.871525 220 59ft 0kts
10-Feb-20 11:29 33.675761 -117.871525 220 59ft 0kts
10-Feb-20 11:30 33.675761 -117.871525 220 59ft 0kts
10-Feb-20 11:31 33.675761 -117.871525 220 59ft 0kts
10-Feb-20 11:32 33.675761 -117.871525 220 59ft 0kts
10-Feb-20 11:33 33.675760 -117.871526 220 59ft 0kts
10-Feb-20 11:34 33.675803 -117.870251 27 59ft 13kts
10-Feb-20 11:35 33.679946 -117.867812 24 59ft 14kts
10-Feb-20 11:36 33.681202 -117.866412 119 59ft 0kts
10-Feb-20 11:37 33.681202 -117.866412 119 59ft 0kts
10-Feb-20 11:38 33.681202 -117.866412 119 59ft 0kts
10-Feb-20 11:39 33.681202 -117.866412 119 59ft 0kts
10-Feb-20 11:40 33.680431 -117.865828 205 59ft 0kts
10-Feb-20 11:41 33.661801 -117.877371 202 906ft 113kts
10-Feb-20 11:42 33.623637 -117.881908 186 2243ft 164kts
10-Feb-20 11:43 33.575849 -117.888199 186 3796ft 171kts
10-Feb-20 11:44 33.529460 -117.896556 186 5057ft 187kts
10-Feb-20 11:45 33.496824 -117.931922 287 6007ft 233kts
10-Feb-20 11:46 33.525537 -118.006857 291 6003ft 255kts
10-Feb-20 11:47 33.583477 -118.048385 3 6007ft 257kts
10-Feb-20 11:48 33.656216 -118.049846 1 6002ft 265kts
10-Feb-20 11:49 33.730511 -118.052697 1 6001ft 268kts
10-Feb-20 11:50 33.804125 -118.056304 354 6004ft 251kts
10-Feb-20 11:51 33.870636 -118.062139 356 5998ft 233kts
10-Feb-20 11:52 33.934923 -118.067501 358 5998ft 232kts
10-Feb-20 11:53 33.999170 -118.072816 355 6001ft 230kts
10-Feb-20 11:54 34.063170 -118.078397 355 5983ft 237kts
10-Feb-20 11:55 34.112511 -118.125318 287 6011ft 264kts
10-Feb-20 11:56 34.137876 -118.210171 291 6005ft 272kts
10-Feb-20 11:57 34.163992 -118.296024 294 6011ft 270kts
10-Feb-20 11:58 34.189706 -118.380532 295 6016ft 264kts
10-Feb-20 11:59 34.214976 -118.463552 295 6012ft 264kts
10-Feb-20 12:00 34.242027 -118.545783 298 6025ft 262kts
10-Feb-20 12:01 34.270048 -118.627442 298 6022ft 263kts
10-Feb-20 12:02 34.298270 -118.709801 297 6025ft 265kts
10-Feb-20 12:03 34.326479 -118.792524 296 6028ft 267kts
10-Feb-20 12:04 34.354616 -118.875434 293 6026ft 267kts
10-Feb-20 12:05 34.351051 -118.959247 267 6030ft 273kts
10-Feb-20 12:06 34.344437 -119.048472 267 6011ft 250kts
10-Feb-20 12:07 34.338870 -119.123141 269 6018ft 233kts
10-Feb-20 12:08 34.333145 -119.199948 269 6019ft 225kts
10-Feb-20 12:09 34.327524 -119.274502 268 6018ft 219kts
10-Feb-20 12:10 34.322033 -119.346513 267 4708ft 209kts
10-Feb-20 12:11 34.316951 -119.412498 268 4000ft 173kts
10-Feb-20 12:12 34.312873 -119.465494 268 4009ft 147kts
10-Feb-20 12:13 34.309597 -119.513793 284 3997ft 143kts
10-Feb-20 12:14 34.329757 -119.556198 302 4002ft 148kts
10-Feb-20 12:16 34.354280 -119.603923 302 3027ft 185kts
10-Feb-20 12:17 34.378353 -119.649386 302 2952ft 126kts
10-Feb-20 12:18 34.398142 -119.685615 303 2648ft 113kts
10-Feb-20 12:19 34.414553 -119.713345 303 1748ft 95kts
10-Feb-20 12:20 34.422782 -119.745388 281 1453ft 103kts
10-Feb-20 12:21 34.429239 -119.780882 277 1046ft 112kts
10-Feb-20 12:22 34.428348 -119.815857 268 303ft 95kts
10-Feb-20 12:23 34.427648 -119.838462 211 15ft 16kts
10-Feb-20 12:24 34.426142 -119.838173 164 15ft 13kts
10-Feb-20 12:25 34.421821 -119.836588 164 15ft 15kts
10-Feb-20 12:26 34.421015 -119.835427 88 15ft 0kts
10-Feb-20 12:27 34.421015 -119.835427 88 15ft 0kts
10-Feb-20 12:28 34.421015 -119.835427 88 15ft 0kts
10-Feb-20 12:29 34.421015 -119.835427 88 15ft 0kts
10-Feb-20 12:30 34.421015 -119.835427 88 15ft 0kts
10-Feb-20 12:31 34.421015 -119.835427 88 15ft 0kts
10-Feb-20 12:32 34.421015 -119.835427 88 15ft 0kts
10-Feb-20 12:33 34.421015 -119.835427 88 15ft 0kts
10-Feb-20 12:34 34.421015 -119.835427 88 15ft 0kts
10-Feb-20 12:35 34.421015 -119.835427 88 15ft 0kts
10-Feb-20 12:36 34.421015 -119.835427 88 15ft 0kts
10-Feb-20 12:37 34.421015 -119.835427 88 15ft 0kts
10-Feb-20 12:37 34.421015 -119.835427 88 15ft 0kts

Navigation Log

Ident Type
Flight plan parsing failed, navigation log unavailable